This is the latest recevied weather packets stored in our database for station/object KB3KAV. If no packets are shown the sender has not sent any weather packets the latest 10 day(s).
| Time | Temp. | Humidity | Pressure | Rain* | Wind** | Luminosity | Snow |
|---|---|---|---|---|---|---|---|
| 1787692736 | 23.89° C | 73% | 1045.1 hPa | 0 mm | - | 67 W/m² | - |
| 1787692130 | 23.89° C | 66% | 1044.9 hPa | 0 mm | - | 141 W/m² | - |
| 1787691529 | 25° C | 64% | 1045.1 hPa | 0 mm | - | 338 W/m² | - |
| 1787690929 | 23.89° C | 66% | 1045.2 hPa | 0 mm | - | 380 W/m² | - |
| 1787690325 | 24.44° C | 67% | 1045 hPa | 0 mm | - | 215 W/m² | - |
| 1787689723 | 23.33° C | 67% | 1044.9 hPa | 0 mm | - | 155 W/m² | - |
| 1787689118 | 24.44° C | 65% | 1045 hPa | 0 mm | - | 656 W/m² | - |
| 1787688515 | 23.89° C | 69% | 1045.1 hPa | 0 mm | - | 612 W/m² | - |
| 1787687911 | 25° C | 65% | 1044.9 hPa | 0 mm | - | 248 W/m² | - |
| 1787687307 | 22.78° C | 67% | 1044.9 hPa | 0 mm | - | 622 W/m² | - |
| 1787686704 | 22.78° C | 67% | 1045 hPa | 0 mm | - | 505 W/m² | - |
| 1787686101 | 22.78° C | 66% | 1045.2 hPa | 0 mm | - | 325 W/m² | - |
| 1787685496 | 23.33° C | 66% | 1045.3 hPa | 0 mm | - | 383 W/m² | - |
| 1787684891 | 22.78° C | 71% | 1045.3 hPa | 0 mm | - | 178 W/m² | - |
| 1787684286 | 23.33° C | 67% | 1045.5 hPa | 0 mm | - | 409 W/m² | - |
| 1787683681 | 22.78° C | 69% | 1045.6 hPa | 0 mm | - | 819 W/m² | - |
| 1787683079 | 21.67° C | 75% | 1045.9 hPa | 0 mm | - | 258 W/m² | - |
| 1787682477 | 21.67° C | 75% | 1045.8 hPa | 0 mm | - | 157 W/m² | - |
| 1787681873 | 22.22° C | 73% | 1045.9 hPa | 0 mm | - | 207 W/m² | - |
| 1787681268 | 22.22° C | 72% | 1046 hPa | 0 mm | - | 277 W/m² | - |
| 1787680663 | 22.78° C | 71% | 1046.1 hPa | 0 mm | - | 196 W/m² | - |
| 1787680061 | 22.22° C | 71% | 1046.1 hPa | 0 mm | - | 353 W/m² | - |
| 1787679456 | 22.22° C | 70% | 1045.9 hPa | 0 mm | - | 405 W/m² | - |
| 1787678852 | 21.67° C | 76% | 1046 hPa | 0 mm | - | 266 W/m² | - |
| 1787678252 | 21.11° C | 76% | 1046.4 hPa | 0 mm | - | 121 W/m² | - |
* Rain latest hour (hover to see other rain measurements)
** Current wind speed in m/s (hover to see current wind gust speed)